Aérodrome :
LOGIN :

S'inscrire | Disclaimer

   EN    FR    IT 

 










Légende :    VFR   VFR Marginal   IFR   IFR Intensif   IFR Très Intensif
Visi : 
Plafond : 
>= 8 km
>= 3000ft
5 à 8 km
1000 à 3000 ft
1500m à 5 km
500 à 1000 ft
800 à 1500m
200 à 500 ft
< 800m
< 200 ft
Symboles :   Orages  Brouillard  Fortes neiges  Fortes précipitations  Vent > 20 kt
SIGMETs :   Divers  Orages  Givrage  Turbulence  Onde Orograph.  Cendres Volcan.







- Altitude de l'aérodrome : 122 ft
- Code IATA : TXL


EDDT - Berlin Tegel Int.

DERNIER METAR :
  • 192050Z 07003KT CAVOK 18/11 Q1029 NOSIG

METARs EXPIRÉS :
  • 192020Z 06003KT 030V090 CAVOK 19/11 Q1029 NOSIG
  • 191950Z 07004KT CAVOK 20/11 Q1029 NOSIG
  • 191920Z 08005KT 050V120 CAVOK 20/11 Q1029 NOSIG
  • 191850Z 07006KT 050V110 CAVOK 21/11 Q1029 NOSIG
  • 191820Z 08005KT 050V110 CAVOK 22/11 Q1029 NOSIG

TAF TAF EDDT
Valide du 19 à 18h jusqu'au 20 à 18h UTC


191700Z 1918/2018 09004KT CAVOK
BECMG 2005/2007 15006KT
BECMG 2009/2011 21008KT
Pas de NOTAMs connus pour ce terrain.



MET'MAP, la Météo Aéronautique d'un coup d'oeil ! - Copyright ORBIFLY Décembre 2007 - Disclaimer

ORBIFLY MET'MAP TEAM :

Programmation & Développement : Alexandra Zaïnal
Conception & Développement : Baudouin d'Aumeries
Co-Programmation & Développement : Marc-Olivier Méhu
Soutien technique & logistique : Manuel Goepfert

Contact : metmap@orbifly.com




SOURCES & CREDITS :

   NOAA